createdAt,value
2019-03-05T00:01:33.621Z,8.80
2019-03-05T00:04:03.085Z,8.80
2019-03-05T00:06:32.506Z,8.80
2019-03-05T00:09:02.097Z,8.80
2019-03-05T00:11:33.343Z,8.70
2019-03-05T00:14:02.912Z,8.70
2019-03-05T00:16:32.330Z,8.70
2019-03-05T00:19:01.716Z,8.70
2019-03-05T00:21:31.134Z,8.60
2019-03-05T00:24:37.150Z,8.60
2019-03-05T00:27:06.493Z,8.50
2019-03-05T00:29:55.901Z,8.50
2019-03-05T00:32:25.299Z,8.50
2019-03-05T00:35:31.280Z,8.40
2019-03-05T00:38:06.357Z,8.40
2019-03-05T00:40:39.783Z,8.30
2019-03-05T00:43:24.205Z,8.30
2019-03-05T00:46:08.821Z,8.30
2019-03-05T00:48:47.523Z,8.30
2019-03-05T00:51:36.613Z,8.30
2019-03-05T00:54:30.565Z,8.20
2019-03-05T00:57:19.889Z,8.20
2019-03-05T01:00:19.157Z,8.20
2019-03-05T01:02:57.484Z,8.20
2019-03-05T01:05:35.495Z,8.10
2019-03-05T01:08:05.351Z,8.10
2019-03-05T01:10:34.843Z,8.10
2019-03-05T01:13:04.600Z,8.10
2019-03-05T01:15:34.198Z,8.10
2019-03-05T01:18:03.727Z,8.10
2019-03-05T01:20:33.075Z,8.00
2019-03-05T01:23:02.462Z,8.00
2019-03-05T01:25:35.488Z,8.00
2019-03-05T01:28:05.385Z,8.00
2019-03-05T01:30:51.023Z,8.00
2019-03-05T01:33:21.347Z,8.00
2019-03-05T01:35:52.689Z,8.00
2019-03-05T01:38:22.069Z,8.00
2019-03-05T01:40:52.943Z,8.00
2019-03-05T01:43:22.317Z,8.00
2019-03-05T01:45:51.943Z,7.90
2019-03-05T01:48:21.294Z,7.90
2019-03-05T01:50:50.679Z,8.00
2019-03-05T01:53:20.049Z,7.90
2019-03-05T01:55:49.761Z,8.00
2019-03-05T01:58:19.149Z,8.00
2019-03-05T02:00:48.557Z,8.00
2019-03-05T02:03:17.984Z,8.00
2019-03-05T02:05:48.015Z,8.00
2019-03-05T02:08:17.552Z,8.00
2019-03-05T02:10:47.386Z,8.00
2019-03-05T02:13:16.939Z,8.00
2019-03-05T02:15:50.488Z,8.00
2019-03-05T02:18:21.118Z,8.00
2019-03-05T02:20:50.528Z,8.00
2019-03-05T02:23:32.191Z,8.00
2019-03-05T02:26:07.652Z,8.00
2019-03-05T02:28:52.749Z,8.00
2019-03-05T02:31:54.246Z,8.00
2019-03-05T02:34:43.244Z,7.90
2019-03-05T02:37:24.582Z,7.90
2019-03-05T02:40:21.387Z,7.80
2019-03-05T02:43:02.632Z,7.90
2019-03-05T02:45:44.239Z,7.80
2019-03-05T02:48:28.448Z,7.80
2019-03-05T02:51:03.662Z,7.80
2019-03-05T02:54:01.682Z,7.80
2019-03-05T02:56:34.275Z,7.90
2019-03-05T02:59:02.575Z,7.90
2019-03-05T03:01:48.602Z,7.90
2019-03-05T03:04:20.003Z,7.90
2019-03-05T03:06:49.558Z,7.90
2019-03-05T03:09:30.881Z,7.80
2019-03-05T03:12:00.502Z,7.80
2019-03-05T03:14:29.913Z,7.80
2019-03-05T03:16:59.273Z,7.90
2019-03-05T03:19:28.659Z,7.80
2019-03-05T03:21:58.097Z,7.90
2019-03-05T03:24:27.447Z,7.90
2019-03-05T03:26:57.235Z,7.90
2019-03-05T03:29:26.603Z,7.90
2019-03-05T03:31:55.958Z,7.90
2019-03-05T03:34:25.387Z,7.90
2019-03-05T03:36:55.077Z,7.90
2019-03-05T03:39:25.771Z,7.90
2019-03-05T03:41:55.339Z,7.90
2019-03-05T03:44:24.829Z,7.90
2019-03-05T03:46:54.169Z,7.90
2019-03-05T03:49:23.636Z,7.90
2019-03-05T03:51:52.991Z,7.90
2019-03-05T03:54:22.351Z,7.90
2019-03-05T03:56:52.045Z,7.90
2019-03-05T03:59:21.726Z,7.90
2019-03-05T04:01:51.151Z,7.90
2019-03-05T04:04:20.595Z,7.90
2019-03-05T04:06:50.394Z,7.90
2019-03-05T04:09:20.106Z,8.00
2019-03-05T04:11:49.933Z,8.00
2019-03-05T04:14:19.359Z,8.00
2019-03-05T04:16:48.864Z,8.00
2019-03-05T04:19:20.014Z,8.00
2019-03-05T04:21:49.643Z,8.00
2019-03-05T04:24:18.985Z,8.00
2019-03-05T04:26:48.688Z,7.90
2019-03-05T04:29:18.082Z,7.90
2019-03-05T04:31:47.500Z,7.90
2019-03-05T04:34:16.858Z,7.90
2019-03-05T04:36:46.335Z,7.90
2019-03-05T04:39:15.740Z,7.90
2019-03-05T04:41:45.169Z,7.90
2019-03-05T04:44:16.263Z,7.90
2019-03-05T04:46:47.254Z,7.90
2019-03-05T04:49:26.412Z,7.90
2019-03-05T04:51:56.528Z,7.90
2019-03-05T04:54:26.110Z,7.90
2019-03-05T04:56:55.571Z,7.90
2019-03-05T04:59:24.918Z,7.90
2019-03-05T05:01:54.395Z,7.80
2019-03-05T05:04:24.019Z,7.80
2019-03-05T05:06:53.349Z,7.80
2019-03-05T05:09:22.703Z,7.80
2019-03-05T05:11:52.473Z,7.80
2019-03-05T05:14:21.887Z,7.80
2019-03-05T05:16:51.293Z,7.80
2019-03-05T05:19:20.691Z,7.80
2019-03-05T05:21:50.055Z,7.80
2019-03-05T05:24:19.467Z,7.80
2019-03-05T05:26:48.964Z,7.80
2019-03-05T05:29:18.354Z,7.70
2019-03-05T05:31:47.705Z,7.70
2019-03-05T05:34:17.081Z,7.70
2019-03-05T05:36:46.487Z,7.70
2019-03-05T05:39:52.841Z,7.70
2019-03-05T05:42:22.191Z,7.60
2019-03-05T05:44:51.607Z,7.60
2019-03-05T05:47:21.005Z,7.60
2019-03-05T05:49:50.357Z,7.50
2019-03-05T05:52:19.703Z,7.50
2019-03-05T05:54:49.501Z,7.40
2019-03-05T05:57:18.837Z,7.40
2019-03-05T05:59:48.559Z,7.40
2019-03-05T06:02:17.929Z,7.40
2019-03-05T06:04:47.270Z,7.40
2019-03-05T06:07:16.693Z,7.30
2019-03-05T06:09:47.136Z,7.40
2019-03-05T06:12:16.787Z,7.30
2019-03-05T06:14:46.167Z,7.30
2019-03-05T06:17:15.552Z,7.30
2019-03-05T06:19:44.970Z,7.30
2019-03-05T06:22:14.345Z,7.30
2019-03-05T06:24:43.860Z,7.30
2019-03-05T06:27:13.663Z,7.30
2019-03-05T06:29:43.005Z,7.30
2019-03-05T06:32:12.462Z,7.30
2019-03-05T06:34:42.155Z,7.30
2019-03-05T06:37:11.930Z,7.30
2019-03-05T06:39:41.307Z,7.30
2019-03-05T06:42:10.719Z,7.30
2019-03-05T06:44:40.071Z,7.30
2019-03-05T06:47:09.462Z,7.30
2019-03-05T06:49:38.840Z,7.30
2019-03-05T06:52:08.200Z,7.30
2019-03-05T06:54:37.880Z,7.30
2019-03-05T06:57:07.294Z,7.30
2019-03-05T06:59:36.650Z,7.30
2019-03-05T07:02:06.094Z,7.30
2019-03-05T07:04:35.436Z,7.30
2019-03-05T07:07:04.980Z,7.30
2019-03-05T07:09:51.303Z,7.30
2019-03-05T07:12:29.371Z,7.30
2019-03-05T07:15:18.930Z,7.30
2019-03-05T07:18:00.428Z,7.30
2019-03-05T07:20:55.128Z,7.30
2019-03-05T07:23:54.998Z,7.30
2019-03-05T07:26:24.756Z,7.30
2019-03-05T07:28:54.164Z,7.30
2019-03-05T07:31:23.544Z,7.30
2019-03-05T07:33:53.029Z,7.30
2019-03-05T07:36:22.592Z,7.30
2019-03-05T07:38:51.942Z,7.40
2019-03-05T07:41:21.322Z,7.40
2019-03-05T07:43:51.011Z,7.40
2019-03-05T07:46:20.383Z,7.40
2019-03-05T07:48:50.920Z,7.50
2019-03-05T07:51:21.402Z,7.50
2019-03-05T07:53:51.716Z,7.60
2019-03-05T07:56:21.064Z,7.60
2019-03-05T07:58:52.258Z,7.60
2019-03-05T08:01:22.680Z,7.70
2019-03-05T08:03:52.291Z,7.70
2019-03-05T08:06:21.736Z,7.70
2019-03-05T08:09:26.124Z,7.70
2019-03-05T08:12:01.366Z,7.70
2019-03-05T08:14:36.726Z,7.70
2019-03-05T08:17:06.068Z,7.80
2019-03-05T08:19:35.434Z,7.80
2019-03-05T08:22:08.726Z,7.80
2019-03-05T08:24:37.740Z,7.80
2019-03-05T08:27:07.411Z,7.90
2019-03-05T08:29:37.111Z,8.00
2019-03-05T08:32:06.482Z,8.00
2019-03-05T08:34:35.857Z,8.00
2019-03-05T08:39:41.799Z,8.10
2019-03-05T08:42:11.324Z,8.10
2019-03-05T08:44:50.037Z,8.10
2019-03-05T08:47:13.313Z,8.10
2019-03-05T08:49:42.818Z,8.20
2019-03-05T08:52:12.233Z,8.20
2019-03-05T08:54:41.669Z,8.20
2019-03-05T08:57:11.716Z,8.30
2019-03-05T08:59:41.174Z,8.30
2019-03-05T09:02:10.612Z,8.40
2019-03-05T09:04:40.153Z,8.40
2019-03-05T09:07:09.703Z,8.40
2019-03-05T09:09:39.147Z,8.40
2019-03-05T09:12:08.578Z,8.40
2019-03-05T09:14:38.113Z,8.50
2019-03-05T09:17:07.635Z,8.50
2019-03-05T09:19:37.033Z,8.50
2019-03-05T09:22:07.642Z,8.60
2019-03-05T09:24:37.480Z,8.60
2019-03-05T09:27:07.041Z,8.70
2019-03-05T09:29:36.466Z,8.70
2019-03-05T09:32:06.161Z,8.70
2019-03-05T09:34:35.634Z,8.80
2019-03-05T09:37:06.256Z,8.80
2019-03-05T09:39:35.695Z,8.90
2019-03-05T09:42:05.399Z,9.00
2019-03-05T09:44:34.825Z,9.00
2019-03-05T09:47:04.331Z,9.00
2019-03-05T09:49:34.023Z,9.00
2019-03-05T09:52:03.472Z,9.10
2019-03-05T09:54:32.929Z,9.10
2019-03-05T09:57:02.773Z,9.20
2019-03-05T09:59:32.283Z,9.20
2019-03-05T10:02:01.707Z,9.30
2019-03-05T10:04:31.240Z,9.40
2019-03-05T10:07:00.685Z,9.40
2019-03-05T10:09:30.147Z,9.40
2019-03-05T10:11:59.763Z,9.30
2019-03-05T10:14:29.271Z,9.20
2019-03-05T10:16:58.690Z,9.20
2019-03-05T10:19:28.101Z,9.10
2019-03-05T10:21:57.533Z,9.00
2019-03-05T10:24:26.981Z,9.00
2019-03-05T10:26:56.687Z,9.00
2019-03-05T10:29:26.107Z,9.00
2019-03-05T10:31:55.568Z,9.00
2019-03-05T10:34:25.323Z,9.00
2019-03-05T10:36:55.124Z,9.10
2019-03-05T10:39:30.542Z,9.20
2019-03-05T10:41:57.684Z,9.30
2019-03-05T10:44:27.353Z,9.40
2019-03-05T10:46:56.735Z,9.40
2019-03-05T10:49:26.234Z,9.50
2019-03-05T10:51:55.772Z,9.40
2019-03-05T10:54:25.198Z,9.50
2019-03-05T10:56:54.701Z,9.60
2019-03-05T10:59:24.189Z,9.60
2019-03-05T11:01:53.746Z,9.60
2019-03-05T11:04:23.362Z,9.60
2019-03-05T11:06:52.926Z,9.50
2019-03-05T11:09:22.712Z,9.50
2019-03-05T11:11:52.157Z,9.60
2019-03-05T11:14:21.668Z,9.60
2019-03-05T11:16:51.438Z,9.70
2019-03-05T11:19:21.084Z,9.80
2019-03-05T11:21:50.568Z,9.90
2019-03-05T11:24:19.986Z,9.90
2019-03-05T11:26:49.380Z,9.90
2019-03-05T11:29:18.814Z,9.90
2019-03-05T11:31:50.184Z,10.00
2019-03-05T11:34:19.816Z,10.00
2019-03-05T11:36:49.310Z,9.90
2019-03-05T11:39:18.788Z,9.90
2019-03-05T11:41:48.421Z,9.80
2019-03-05T11:44:17.858Z,9.80
2019-03-05T11:46:47.288Z,9.80
2019-03-05T11:49:16.828Z,9.80
2019-03-05T11:51:46.264Z,9.90
2019-03-05T11:54:15.701Z,9.90
2019-03-05T11:56:45.404Z,9.90
2019-03-05T11:59:15.180Z,10.00
2019-03-05T12:01:44.589Z,10.10
2019-03-05T12:04:14.014Z,10.20
2019-03-05T12:06:43.342Z,10.20
2019-03-05T12:09:12.830Z,10.30
2019-03-05T12:11:42.362Z,10.30
2019-03-05T12:14:11.802Z,10.40
2019-03-05T12:16:41.795Z,10.40
2019-03-05T12:19:11.330Z,10.40
2019-03-05T12:21:41.762Z,10.50
2019-03-05T12:24:11.196Z,10.50
2019-03-05T12:26:40.680Z,10.50
2019-03-05T12:29:10.148Z,10.40
2019-03-05T12:31:39.899Z,10.40
2019-03-05T12:34:09.382Z,10.40
2019-03-05T12:36:38.824Z,10.50
2019-03-05T12:39:10.202Z,10.50
2019-03-05T12:41:41.985Z,10.50
2019-03-05T12:44:11.958Z,10.50
2019-03-05T12:46:41.405Z,10.50
2019-03-05T12:49:14.224Z,10.60
2019-03-05T12:51:43.652Z,10.60
2019-03-05T12:54:13.390Z,10.80
2019-03-05T12:56:42.954Z,10.90
2019-03-05T12:59:12.326Z,10.90
2019-03-05T13:01:41.742Z,11.00
2019-03-05T13:04:11.179Z,11.10
2019-03-05T13:06:40.666Z,11.00
2019-03-05T13:09:13.664Z,11.00
2019-03-05T13:11:46.631Z,10.90
2019-03-05T13:14:15.422Z,10.70
2019-03-05T13:16:45.139Z,10.70
2019-03-05T13:19:14.595Z,10.60
2019-03-05T13:21:48.009Z,10.60
2019-03-05T13:24:15.213Z,10.60
2019-03-05T13:26:46.288Z,10.50
2019-03-05T13:29:19.211Z,10.50
2019-03-05T13:31:47.005Z,10.70
2019-03-05T13:34:17.747Z,10.80
2019-03-05T13:36:50.764Z,10.90
2019-03-05T13:39:22.317Z,10.90
2019-03-05T13:41:53.911Z,10.90
2019-03-05T13:44:32.067Z,10.90
2019-03-05T13:47:04.588Z,10.90
2019-03-05T13:49:57.579Z,11.00
2019-03-05T13:52:36.095Z,11.10
2019-03-05T13:55:23.488Z,11.20
2019-03-05T13:58:02.513Z,11.20
2019-03-05T14:00:31.949Z,11.20
2019-03-05T14:03:07.315Z,11.20
2019-03-05T14:05:45.443Z,11.10
2019-03-05T14:08:36.071Z,11.00
2019-03-05T14:11:05.826Z,11.00
2019-03-05T14:13:35.367Z,11.00
2019-03-05T14:16:07.243Z,11.00
2019-03-05T14:18:36.767Z,11.10
2019-03-05T14:21:06.617Z,11.20
2019-03-05T14:23:36.076Z,11.30
2019-03-05T14:26:05.536Z,11.30
2019-03-05T14:28:35.115Z,11.30
2019-03-05T14:31:05.027Z,11.30
2019-03-05T14:33:34.449Z,11.20
2019-03-05T14:36:04.173Z,11.20
2019-03-05T14:38:34.613Z,11.20
2019-03-05T14:41:04.349Z,11.20
2019-03-05T14:43:33.962Z,11.20
2019-03-05T14:46:03.577Z,11.20
2019-03-05T14:48:33.010Z,11.20
2019-03-05T14:51:02.740Z,11.20
2019-03-05T14:53:32.201Z,11.20
2019-03-05T14:56:01.635Z,11.20
2019-03-05T14:58:31.139Z,11.20
2019-03-05T15:01:00.697Z,11.20
2019-03-05T15:03:30.332Z,11.30
2019-03-05T15:05:59.839Z,11.20
2019-03-05T15:08:29.337Z,11.20
2019-03-05T15:10:58.881Z,11.20
2019-03-05T15:13:28.414Z,11.20
2019-03-05T15:15:57.849Z,11.20
2019-03-05T15:18:27.307Z,11.20
2019-03-05T15:20:56.815Z,11.20
2019-03-05T15:23:26.291Z,11.20
2019-03-05T15:25:55.683Z,11.30
2019-03-05T15:28:25.120Z,11.40
2019-03-05T15:30:54.661Z,11.50
2019-03-05T15:33:24.103Z,11.50
2019-03-05T15:35:53.585Z,11.50
2019-03-05T15:38:23.035Z,11.50
2019-03-05T15:40:52.500Z,11.50
2019-03-05T15:43:21.947Z,11.50
2019-03-05T15:45:51.378Z,11.50
2019-03-05T15:48:20.958Z,11.50
2019-03-05T15:50:50.418Z,11.40
2019-03-05T15:53:19.808Z,11.40
2019-03-05T15:55:49.244Z,11.40
2019-03-05T15:58:18.653Z,11.40
2019-03-05T16:00:48.104Z,11.30
2019-03-05T16:03:17.823Z,11.30
2019-03-05T16:05:47.466Z,11.20
2019-03-05T16:08:20.932Z,11.20
2019-03-05T16:10:50.394Z,11.20
2019-03-05T16:13:20.658Z,11.10
2019-03-05T16:15:50.290Z,11.10
2019-03-05T16:18:19.652Z,11.00
2019-03-05T16:20:49.110Z,11.00
2019-03-05T16:23:18.574Z,11.00
2019-03-05T16:25:50.257Z,11.00
2019-03-05T16:28:19.552Z,11.00
2019-03-05T16:31:07.700Z,10.90
2019-03-05T16:33:39.846Z,10.90
2019-03-05T16:36:13.602Z,10.90
2019-03-05T16:38:51.199Z,10.90
2019-03-05T16:41:32.580Z,10.90
2019-03-05T16:44:05.557Z,10.80
2019-03-05T16:46:36.614Z,10.80
2019-03-05T16:49:08.018Z,10.90
2019-03-05T16:51:39.102Z,10.80
2019-03-05T16:54:12.754Z,10.80
2019-03-05T16:56:58.883Z,10.80
2019-03-05T16:59:30.149Z,10.80
2019-03-05T17:02:16.672Z,10.80
2019-03-05T17:05:02.882Z,10.80
2019-03-05T17:07:49.503Z,10.80
2019-03-05T17:10:37.110Z,10.80
2019-03-05T17:13:06.872Z,10.80
2019-03-05T17:15:36.409Z,10.80
2019-03-05T17:18:06.439Z,10.70
2019-03-05T17:20:37.329Z,10.70
2019-03-05T17:23:07.031Z,10.60
2019-03-05T17:25:36.577Z,10.60
2019-03-05T17:28:06.155Z,10.60
2019-03-05T17:30:36.074Z,10.60
2019-03-05T17:33:05.791Z,10.50
2019-03-05T17:35:35.678Z,10.50
2019-03-05T17:38:05.931Z,10.50
2019-03-05T17:40:35.848Z,10.50
2019-03-05T17:43:07.228Z,10.50
2019-03-05T17:45:36.971Z,10.40
2019-03-05T17:48:06.879Z,10.40
2019-03-05T17:50:36.327Z,10.40
2019-03-05T17:53:06.079Z,10.40
2019-03-05T17:55:35.815Z,10.30
2019-03-05T17:58:05.447Z,10.30
2019-03-05T18:00:36.681Z,10.30
2019-03-05T18:03:07.391Z,10.30
2019-03-05T18:05:37.601Z,10.30
2019-03-05T18:08:07.427Z,10.20
2019-03-05T18:10:37.126Z,10.20
2019-03-05T18:13:06.803Z,10.10
2019-03-05T18:15:37.948Z,10.10
2019-03-05T18:18:07.771Z,10.10
2019-03-05T18:20:37.282Z,10.10
2019-03-05T18:23:06.879Z,10.00
2019-03-05T18:25:36.374Z,10.00
2019-03-05T18:28:05.994Z,10.00
2019-03-05T18:33:35.123Z,9.90
2019-03-05T18:36:06.623Z,9.90
2019-03-05T18:38:36.593Z,9.90
2019-03-05T18:41:06.294Z,9.80
2019-03-05T18:43:37.343Z,9.80
2019-03-05T18:46:07.031Z,9.80
2019-03-05T18:48:36.593Z,9.70
2019-03-05T18:51:06.189Z,9.70
2019-03-05T18:53:35.730Z,9.70
2019-03-05T18:56:05.178Z,9.70
2019-03-05T18:58:34.633Z,9.70
2019-03-05T19:01:04.435Z,9.60
2019-03-05T19:05:44.390Z,9.60
2019-03-05T19:08:13.924Z,9.60
2019-03-05T19:10:43.513Z,9.60
2019-03-05T19:13:12.996Z,9.60
2019-03-05T19:15:42.607Z,9.60
2019-03-05T19:18:12.023Z,9.60
2019-03-05T19:20:41.527Z,9.50
2019-03-05T19:23:11.001Z,9.50
2019-03-05T19:25:45.609Z,9.50
2019-03-05T19:30:20.974Z,9.50
2019-03-05T19:32:50.956Z,9.50
2019-03-05T19:35:20.781Z,9.50
2019-03-05T19:37:50.448Z,9.50
2019-03-05T19:40:23.073Z,9.50
2019-03-05T19:42:52.827Z,9.40
2019-03-05T19:45:22.349Z,9.50
2019-03-05T19:47:51.889Z,9.40
2019-03-05T19:50:23.244Z,9.40
2019-03-05T19:52:52.829Z,9.40
2019-03-05T19:55:26.458Z,9.40
2019-03-05T19:58:12.516Z,9.40
2019-03-05T20:01:03.115Z,9.40
2019-03-05T20:03:32.669Z,9.40
2019-03-05T20:06:02.267Z,9.50
2019-03-05T20:08:39.429Z,9.50
2019-03-05T20:11:03.295Z,9.40
2019-03-05T20:13:33.054Z,9.50
2019-03-05T20:16:02.924Z,9.50
2019-03-05T20:18:32.383Z,9.50
2019-03-05T20:21:02.012Z,9.50
2019-03-05T20:23:31.458Z,9.50
2019-03-05T20:26:01.074Z,9.60
2019-03-05T20:28:30.566Z,9.60
2019-03-05T20:30:59.965Z,9.60
2019-03-05T20:33:29.380Z,9.60
2019-03-05T20:35:58.932Z,9.60
2019-03-05T20:38:28.390Z,9.60
2019-03-05T20:40:57.918Z,9.70
2019-03-05T20:43:27.480Z,9.70
2019-03-05T20:46:03.157Z,9.70
2019-03-05T20:48:32.627Z,9.80
2019-03-05T20:51:05.030Z,9.70
2019-03-05T20:53:34.688Z,9.80
2019-03-05T20:56:04.436Z,9.80
2019-03-05T20:58:33.973Z,9.80
2019-03-05T21:01:05.518Z,9.80
2019-03-05T21:03:35.203Z,9.80
2019-03-05T21:06:05.967Z,9.90
2019-03-05T21:08:36.052Z,9.90
2019-03-05T21:11:05.855Z,9.90
2019-03-05T21:13:35.347Z,9.90
2019-03-05T21:16:05.265Z,9.90
2019-03-05T21:18:34.785Z,9.90
2019-03-05T21:21:04.460Z,10.00
2019-03-05T21:23:33.880Z,10.00
2019-03-05T21:26:03.314Z,10.00
2019-03-05T21:28:32.779Z,10.00
2019-03-05T21:31:02.215Z,10.10
2019-03-05T21:33:31.711Z,10.00
2019-03-05T21:36:01.183Z,10.10
2019-03-05T21:38:30.690Z,10.10
2019-03-05T21:41:00.150Z,10.10
2019-03-05T21:43:29.669Z,10.10
2019-03-05T21:46:02.172Z,10.10
2019-03-05T21:48:31.642Z,10.10
2019-03-05T21:51:01.312Z,10.10
2019-03-05T21:53:31.120Z,10.10
2019-03-05T21:56:00.891Z,10.10
2019-03-05T21:58:30.411Z,10.10
2019-03-05T22:00:59.947Z,10.10
2019-03-05T22:03:29.791Z,10.10
2019-03-05T22:05:59.245Z,10.20
2019-03-05T22:08:28.719Z,10.20
2019-03-05T22:10:58.310Z,10.20
2019-03-05T22:13:27.835Z,10.20
2019-03-05T22:15:57.285Z,10.20
2019-03-05T22:18:27.147Z,10.20
2019-03-05T22:20:56.577Z,10.20
2019-03-05T22:23:25.985Z,10.30
2019-03-05T22:25:55.985Z,10.30
2019-03-05T22:28:25.484Z,10.30
2019-03-05T22:30:55.096Z,10.30
2019-03-05T22:33:24.708Z,10.30
2019-03-05T22:35:54.476Z,10.30
2019-03-05T22:38:24.055Z,10.30
2019-03-05T22:40:53.734Z,10.30
2019-03-05T22:43:23.277Z,10.30
2019-03-05T22:45:52.768Z,10.30
2019-03-05T22:48:22.216Z,10.30
2019-03-05T22:50:57.787Z,10.30
2019-03-05T22:53:27.548Z,10.30
2019-03-05T22:55:57.011Z,10.30
2019-03-05T22:58:26.432Z,10.30
2019-03-05T23:01:00.629Z,10.40
2019-03-05T23:03:31.836Z,10.30
2019-03-05T23:06:04.877Z,10.30
2019-03-05T23:08:34.322Z,10.30
2019-03-05T23:11:03.836Z,10.30
2019-03-05T23:13:34.151Z,10.30
2019-03-05T23:16:04.140Z,10.40
2019-03-05T23:18:33.662Z,10.30
2019-03-05T23:21:03.552Z,10.30
2019-03-05T23:23:33.739Z,10.40
2019-03-05T23:26:05.228Z,10.40
2019-03-05T23:28:36.756Z,10.40
2019-03-05T23:31:06.922Z,10.40
2019-03-05T23:33:36.416Z,10.40
2019-03-05T23:36:05.899Z,10.40
2019-03-05T23:38:35.636Z,10.40
2019-03-05T23:41:05.139Z,10.40
2019-03-05T23:43:34.772Z,10.40
2019-03-05T23:46:04.968Z,10.40
2019-03-05T23:48:34.390Z,10.50
2019-03-05T23:51:03.793Z,10.40
2019-03-05T23:53:33.328Z,10.50
2019-03-05T23:56:02.750Z,10.50
2019-03-05T23:58:32.470Z,10.50
